sensor_id;sensor_type;location;lat;lon;timestamp;pressure;altitude;pressure_sealevel;temperature;humidity
58367;BME280;57745;42.524;12.052;2023-04-16T00:00:20;95309.13;;;14.68;54.23
58367;BME280;57745;42.524;12.052;2023-04-16T00:02:46;95310.53;;;14.58;54.57
58367;BME280;57745;42.524;12.052;2023-04-16T00:05:13;95309.72;;;14.78;53.88
58367;BME280;57745;42.524;12.052;2023-04-16T00:07:38;95319.81;;;14.72;54.00
58367;BME280;57745;42.524;12.052;2023-04-16T00:10:05;95321.28;;;14.47;54.33
58367;BME280;57745;42.524;12.052;2023-04-16T00:12:32;95322.78;;;14.68;54.10
58367;BME280;57745;42.524;12.052;2023-04-16T00:14:58;95324.06;;;14.73;53.93
58367;BME280;57745;42.524;12.052;2023-04-16T00:17:23;95324.13;;;14.79;53.27
58367;BME280;57745;42.524;12.052;2023-04-16T00:19:49;95330.88;;;14.83;53.46
58367;BME280;57745;42.524;12.052;2023-04-16T00:22:14;95335.84;;;14.85;53.73
58367;BME280;57745;42.524;12.052;2023-04-16T00:24:40;95336.38;;;14.89;53.53
58367;BME280;57745;42.524;12.052;2023-04-16T00:27:06;95339.47;;;14.76;53.90
58367;BME280;57745;42.524;12.052;2023-04-16T00:29:31;95344.59;;;14.68;53.86
58367;BME280;57745;42.524;12.052;2023-04-16T00:31:57;95337.25;;;14.54;53.98
58367;BME280;57745;42.524;12.052;2023-04-16T00:34:24;95344.88;;;14.50;54.33
58367;BME280;57745;42.524;12.052;2023-04-16T00:36:50;95350.34;;;14.70;53.78
58367;BME280;57745;42.524;12.052;2023-04-16T00:39:15;95343.25;;;14.58;54.33
58367;BME280;57745;42.524;12.052;2023-04-16T00:41:42;95348.50;;;14.62;54.12
58367;BME280;57745;42.524;12.052;2023-04-16T00:44:08;95343.22;;;14.79;53.52
58367;BME280;57745;42.524;12.052;2023-04-16T00:46:33;95345.88;;;14.73;53.27
58367;BME280;57745;42.524;12.052;2023-04-16T00:49:00;95348.97;;;14.60;53.93
58367;BME280;57745;42.524;12.052;2023-04-16T00:51:26;95344.22;;;14.55;53.93
58367;BME280;57745;42.524;12.052;2023-04-16T00:53:52;95347.69;;;14.56;53.80
58367;BME280;57745;42.524;12.052;2023-04-16T00:56:18;95347.34;;;14.48;53.65
58367;BME280;57745;42.524;12.052;2023-04-16T00:58:43;95347.97;;;14.58;53.56
58367;BME280;57745;42.524;12.052;2023-04-16T01:01:08;95356.47;;;14.65;53.26
58367;BME280;57745;42.524;12.052;2023-04-16T01:03:39;95349.94;;;14.57;53.33
58367;BME280;57745;42.524;12.052;2023-04-16T01:06:06;95348.28;;;14.65;53.00
58367;BME280;57745;42.524;12.052;2023-04-16T01:08:32;95358.94;;;14.63;53.09
58367;BME280;57745;42.524;12.052;2023-04-16T01:10:57;95356.63;;;14.56;53.04
58367;BME280;57745;42.524;12.052;2023-04-16T01:13:22;95363.44;;;14.66;52.44
58367;BME280;57745;42.524;12.052;2023-04-16T01:15:50;95358.25;;;14.68;52.68
58367;BME280;57745;42.524;12.052;2023-04-16T01:18:19;95355.84;;;14.76;52.51
58367;BME280;57745;42.524;12.052;2023-04-16T01:20:47;95355.78;;;14.50;52.88
58367;BME280;57745;42.524;12.052;2023-04-16T01:23:13;95357.16;;;14.60;52.92
58367;BME280;57745;42.524;12.052;2023-04-16T01:25:38;95359.75;;;14.69;52.73
58367;BME280;57745;42.524;12.052;2023-04-16T01:28:04;95358.59;;;14.56;53.25
58367;BME280;57745;42.524;12.052;2023-04-16T01:30:30;95356.59;;;14.77;52.20
58367;BME280;57745;42.524;12.052;2023-04-16T01:32:56;95368.00;;;14.55;52.83
58367;BME280;57745;42.524;12.052;2023-04-16T01:35:22;95360.72;;;14.46;53.19
58367;BME280;57745;42.524;12.052;2023-04-16T01:37:49;95367.78;;;14.79;52.07
58367;BME280;57745;42.524;12.052;2023-04-16T01:40:15;95365.34;;;14.60;52.76
58367;BME280;57745;42.524;12.052;2023-04-16T01:42:40;95368.06;;;14.81;51.98
58367;BME280;57745;42.524;12.052;2023-04-16T01:45:06;95367.47;;;14.51;52.95
58367;BME280;57745;42.524;12.052;2023-04-16T01:47:31;95365.25;;;14.75;52.40
58367;BME280;57745;42.524;12.052;2023-04-16T01:49:58;95377.81;;;14.87;51.72
58367;BME280;57745;42.524;12.052;2023-04-16T01:52:24;95368.75;;;14.55;52.87
58367;BME280;57745;42.524;12.052;2023-04-16T01:54:49;95378.72;;;14.58;52.48
58367;BME280;57745;42.524;12.052;2023-04-16T01:57:15;95377.81;;;14.47;52.87
58367;BME280;57745;42.524;12.052;2023-04-16T01:59:40;95375.91;;;14.53;52.64
58367;BME280;57745;42.524;12.052;2023-04-16T02:02:10;95373.19;;;14.53;52.64
58367;BME280;57745;42.524;12.052;2023-04-16T02:04:39;95379.38;;;14.73;51.94
58367;BME280;57745;42.524;12.052;2023-04-16T02:07:05;95381.19;;;14.56;52.69
58367;BME280;57745;42.524;12.052;2023-04-16T02:09:33;95375.09;;;14.67;52.48
58367;BME280;57745;42.524;12.052;2023-04-16T02:11:59;95377.81;;;14.47;53.03
58367;BME280;57745;42.524;12.052;2023-04-16T02:14:26;95377.75;;;14.61;52.76
58367;BME280;57745;42.524;12.052;2023-04-16T02:16:52;95380.72;;;14.58;52.79
58367;BME280;57745;42.524;12.052;2023-04-16T02:19:17;95382.53;;;14.46;53.17
58367;BME280;57745;42.524;12.052;2023-04-16T02:21:43;95375.72;;;14.56;53.17
58367;BME280;57745;42.524;12.052;2023-04-16T02:24:08;95368.94;;;14.72;52.70
58367;BME280;57745;42.524;12.052;2023-04-16T02:26:33;95365.63;;;14.62;52.92
58367;BME280;57745;42.524;12.052;2023-04-16T02:28:59;95372.56;;;14.63;52.96
58367;BME280;57745;42.524;12.052;2023-04-16T02:31:25;95368.28;;;14.57;53.48
58367;BME280;57745;42.524;12.052;2023-04-16T02:33:52;95369.09;;;14.63;52.98
58367;BME280;57745;42.524;12.052;2023-04-16T02:36:18;95368.34;;;14.62;53.33
58367;BME280;57745;42.524;12.052;2023-04-16T02:38:43;95369.25;;;14.54;53.67
58367;BME280;57745;42.524;12.052;2023-04-16T02:41:09;95372.53;;;14.58;53.56
58367;BME280;57745;42.524;12.052;2023-04-16T02:43:34;95365.88;;;14.64;53.17
58367;BME280;57745;42.524;12.052;2023-04-16T02:46:00;95367.59;;;14.62;53.40
58367;BME280;57745;42.524;12.052;2023-04-16T02:48:25;95367.81;;;14.58;53.61
58367;BME280;57745;42.524;12.052;2023-04-16T02:50:51;95367.31;;;14.60;53.65
58367;BME280;57745;42.524;12.052;2023-04-16T02:53:16;95370.94;;;14.51;53.92
58367;BME280;57745;42.524;12.052;2023-04-16T02:55:49;95361.25;;;14.50;53.52
58367;BME280;57745;42.524;12.052;2023-04-16T02:58:16;95368.97;;;14.52;53.19
58367;BME280;57745;42.524;12.052;2023-04-16T03:00:42;95372.13;;;14.30;54.27
58367;BME280;57745;42.524;12.052;2023-04-16T03:03:07;95359.22;;;14.45;53.94
58367;BME280;57745;42.524;12.052;2023-04-16T03:05:33;95368.72;;;14.35;54.34
58367;BME280;57745;42.524;12.052;2023-04-16T03:07:58;95360.16;;;14.42;54.08
58367;BME280;57745;42.524;12.052;2023-04-16T03:10:23;95365.44;;;14.31;54.28
58367;BME280;57745;42.524;12.052;2023-04-16T03:12:49;95371.66;;;14.31;54.48
58367;BME280;57745;42.524;12.052;2023-04-16T03:15:14;95365.50;;;14.36;54.08
58367;BME280;57745;42.524;12.052;2023-04-16T03:17:40;95371.66;;;14.31;54.27
58367;BME280;57745;42.524;12.052;2023-04-16T03:20:06;95372.41;;;14.32;54.26
58367;BME280;57745;42.524;12.052;2023-04-16T03:22:31;95367.91;;;14.29;54.38
58367;BME280;57745;42.524;12.052;2023-04-16T03:24:57;95375.25;;;14.58;53.38
58367;BME280;57745;42.524;12.052;2023-04-16T03:27:22;95377.63;;;14.50;53.60
58367;BME280;57745;42.524;12.052;2023-04-16T03:29:48;95374.44;;;14.37;54.01
58367;BME280;57745;42.524;12.052;2023-04-16T03:32:13;95375.72;;;14.56;53.52
58367;BME280;57745;42.524;12.052;2023-04-16T03:34:38;95373.66;;;14.51;53.60
58367;BME280;57745;42.524;12.052;2023-04-16T03:37:04;95379.72;;;14.41;53.66
58367;BME280;57745;42.524;12.052;2023-04-16T03:39:31;95378.03;;;14.43;53.95
58367;BME280;57745;42.524;12.052;2023-04-16T03:41:56;95380.72;;;14.58;53.67
58367;BME280;57745;42.524;12.052;2023-04-16T03:44:22;95370.88;;;14.46;53.72
58367;BME280;57745;42.524;12.052;2023-04-16T03:46:48;95373.75;;;14.57;53.75
58367;BME280;57745;42.524;12.052;2023-04-16T03:49:13;95374.50;;;14.57;53.60
58367;BME280;57745;42.524;12.052;2023-04-16T03:51:38;95385.94;;;14.41;54.24
58367;BME280;57745;42.524;12.052;2023-04-16T03:54:04;95386.69;;;14.42;54.35
58367;BME280;57745;42.524;12.052;2023-04-16T03:56:29;95381.78;;;14.46;54.05
58367;BME280;57745;42.524;12.052;2023-04-16T03:58:55;95386.16;;;14.23;54.35
58367;BME280;57745;42.524;12.052;2023-04-16T04:01:20;95373.63;;;14.31;54.23
58367;BME280;57745;42.524;12.052;2023-04-16T04:03:45;95384.31;;;14.34;54.21
58367;BME280;57745;42.524;12.052;2023-04-16T04:06:11;95390.28;;;14.33;54.23
58367;BME280;57745;42.524;12.052;2023-04-16T04:08:37;95397.94;;;14.49;53.89
58367;BME280;57745;42.524;12.052;2023-04-16T04:11:03;95404.22;;;14.55;53.59
58367;BME280;57745;42.524;12.052;2023-04-16T04:13:28;95391.41;;;14.41;53.74
58367;BME280;57745;42.524;12.052;2023-04-16T04:15:54;95397.00;;;14.52;53.40
58367;BME280;57745;42.524;12.052;2023-04-16T04:18:19;95399.81;;;14.58;53.13
58367;BME280;57745;42.524;12.052;2023-04-16T04:20:44;95397.78;;;14.38;53.47
58367;BME280;57745;42.524;12.052;2023-04-16T04:23:10;95396.72;;;14.50;53.02
58367;BME280;57745;42.524;12.052;2023-04-16T04:25:35;95398.31;;;14.57;52.69
58367;BME280;57745;42.524;12.052;2023-04-16T04:28:02;95409.00;;;14.60;52.69
58367;BME280;57745;42.524;12.052;2023-04-16T04:30:27;95410.88;;;14.34;53.30
58367;BME280;57745;42.524;12.052;2023-04-16T04:32:52;95415.81;;;14.50;52.48
58367;BME280;57745;42.524;12.052;2023-04-16T04:35:18;95409.91;;;14.37;52.44
58367;BME280;57745;42.524;12.052;2023-04-16T04:37:43;95408.16;;;14.34;51.97
58367;BME280;57745;42.524;12.052;2023-04-16T04:40:09;95415.28;;;14.46;52.07
58367;BME280;57745;42.524;12.052;2023-04-16T04:42:36;95416.75;;;14.47;51.87
58367;BME280;57745;42.524;12.052;2023-04-16T04:45:01;95424.69;;;14.45;51.15
58367;BME280;57745;42.524;12.052;2023-04-16T04:47:27;95419.91;;;14.60;50.59
58367;BME280;57745;42.524;12.052;2023-04-16T04:49:52;95425.97;;;14.50;50.99
58367;BME280;57745;42.524;12.052;2023-04-16T04:52:17;95430.41;;;14.47;50.57
58367;BME280;57745;42.524;12.052;2023-04-16T04:54:44;95432.13;;;14.30;51.32
58367;BME280;57745;42.524;12.052;2023-04-16T04:57:09;95437.47;;;14.39;50.58
58367;BME280;57745;42.524;12.052;2023-04-16T04:59:35;95437.16;;;14.17;50.83
58367;BME280;57745;42.524;12.052;2023-04-16T05:02:01;95457.44;;;14.45;50.39
58367;BME280;57745;42.524;12.052;2023-04-16T05:04:28;95459.41;;;14.30;50.02
58367;BME280;57745;42.524;12.052;2023-04-16T05:06:54;95462.31;;;14.41;50.40
58367;BME280;57745;42.524;12.052;2023-04-16T05:09:19;95466.63;;;14.48;50.01
58367;BME280;57745;42.524;12.052;2023-04-16T05:11:45;95469.84;;;14.31;50.16
58367;BME280;57745;42.524;12.052;2023-04-16T05:14:10;95463.22;;;14.38;49.87
58367;BME280;57745;42.524;12.052;2023-04-16T05:16:36;95461.56;;;14.26;49.64
58367;BME280;57745;42.524;12.052;2023-04-16T05:19:02;95467.59;;;14.15;50.07
58367;BME280;57745;42.524;12.052;2023-04-16T05:21:27;95469.44;;;14.38;49.79
58367;BME280;57745;42.524;12.052;2023-04-16T05:23:53;95484.59;;;14.25;49.45
58367;BME280;57745;42.524;12.052;2023-04-16T05:26:18;95469.19;;;14.22;49.64
58367;BME280;57745;42.524;12.052;2023-04-16T05:28:44;95475.78;;;14.30;49.67
58367;BME280;57745;42.524;12.052;2023-04-16T05:31:10;95484.53;;;14.19;50.13
58367;BME280;57745;42.524;12.052;2023-04-16T05:33:35;95482.63;;;14.40;49.52
58367;BME280;57745;42.524;12.052;2023-04-16T05:36:01;95493.00;;;14.21;49.74
58367;BME280;57745;42.524;12.052;2023-04-16T05:38:26;95500.31;;;14.30;49.46
58367;BME280;57745;42.524;12.052;2023-04-16T05:40:51;95499.75;;;14.26;49.93
58367;BME280;57745;42.524;12.052;2023-04-16T05:43:17;95499.28;;;14.27;49.90
58367;BME280;57745;42.524;12.052;2023-04-16T05:45:42;95499.19;;;14.22;49.73
58367;BME280;57745;42.524;12.052;2023-04-16T05:48:08;95490.19;;;14.16;49.79
58367;BME280;57745;42.524;12.052;2023-04-16T05:50:34;95502.59;;;14.17;50.32
58367;BME280;57745;42.524;12.052;2023-04-16T05:53:01;95493.47;;;14.20;49.83
58367;BME280;57745;42.524;12.052;2023-04-16T05:55:27;95496.97;;;14.06;50.08
58367;BME280;57745;42.524;12.052;2023-04-16T05:57:52;95496.66;;;14.33;50.01
58367;BME280;57745;42.524;12.052;2023-04-16T06:00:17;95494.66;;;14.48;49.67
58367;BME280;57745;42.524;12.052;2023-04-16T06:02:44;95506.59;;;14.36;50.26
58367;BME280;57745;42.524;12.052;2023-04-16T06:05:09;95518.84;;;14.41;49.76
58367;BME280;57745;42.524;12.052;2023-04-16T06:07:35;95513.84;;;14.24;50.42
58367;BME280;57745;42.524;12.052;2023-04-16T06:10:00;95507.81;;;14.35;50.20
58367;BME280;57745;42.524;12.052;2023-04-16T06:12:26;95508.19;;;14.57;50.04
58367;BME280;57745;42.524;12.052;2023-04-16T06:14:51;95517.16;;;14.43;50.48
58367;BME280;57745;42.524;12.052;2023-04-16T06:17:17;95511.09;;;14.39;50.69
58367;BME280;57745;42.524;12.052;2023-04-16T06:19:43;95513.84;;;14.39;50.71
58367;BME280;57745;42.524;12.052;2023-04-16T06:22:09;95499.56;;;14.44;50.67
58367;BME280;57745;42.524;12.052;2023-04-16T06:24:34;95502.66;;;14.22;50.43
58367;BME280;57745;42.524;12.052;2023-04-16T06:27:00;95503.03;;;14.30;50.72
58367;BME280;57745;42.524;12.052;2023-04-16T06:29:25;95485.06;;;14.38;50.33
58367;BME280;57745;42.524;12.052;2023-04-16T06:31:51;95481.56;;;14.37;50.28
58367;BME280;57745;42.524;12.052;2023-04-16T06:34:16;95490.63;;;14.29;50.47
58367;BME280;57745;42.524;12.052;2023-04-16T06:36:42;95489.41;;;14.30;50.70
58367;BME280;57745;42.524;12.052;2023-04-16T06:39:07;95490.22;;;14.51;50.45
58367;BME280;57745;42.524;12.052;2023-04-16T06:41:32;95495.88;;;14.47;50.23
58367;BME280;57745;42.524;12.052;2023-04-16T06:43:58;95491.09;;;14.27;51.08
58367;BME280;57745;42.524;12.052;2023-04-16T06:46:23;95494.88;;;14.45;51.04
58367;BME280;57745;42.524;12.052;2023-04-16T06:48:49;95503.72;;;14.40;51.13
58367;BME280;57745;42.524;12.052;2023-04-16T06:51:14;95493.38;;;14.14;51.79
58367;BME280;57745;42.524;12.052;2023-04-16T06:53:40;95498.69;;;14.38;50.93
58367;BME280;57745;42.524;12.052;2023-04-16T06:56:06;95492.00;;;14.39;50.77
58367;BME280;57745;42.524;12.052;2023-04-16T06:58:32;95503.78;;;14.30;51.14
58367;BME280;57745;42.524;12.052;2023-04-16T07:00:58;95498.53;;;14.42;51.07
58367;BME280;57745;42.524;12.052;2023-04-16T07:03:23;95499.38;;;14.33;51.52
58367;BME280;57745;42.524;12.052;2023-04-16T07:05:49;95507.81;;;14.35;51.46
58367;BME280;57745;42.524;12.052;2023-04-16T07:08:14;95512.50;;;14.34;51.71
58367;BME280;57745;42.524;12.052;2023-04-16T07:10:40;95512.00;;;14.45;51.64
58367;BME280;57745;42.524;12.052;2023-04-16T07:13:05;95507.00;;;14.44;51.73
58367;BME280;57745;42.524;12.052;2023-04-16T07:15:31;95510.81;;;14.52;51.59
58367;BME280;57745;42.524;12.052;2023-04-16T07:17:56;95515.66;;;14.42;51.93
58367;BME280;57745;42.524;12.052;2023-04-16T07:20:21;95512.31;;;14.67;51.42
58367;BME280;57745;42.524;12.052;2023-04-16T07:22:47;95522.97;;;14.36;52.54
58367;BME280;57745;42.524;12.052;2023-04-16T07:25:12;95521.16;;;14.62;51.83
58367;BME280;57745;42.524;12.052;2023-04-16T07:27:38;95513.59;;;14.72;51.64
58367;BME280;57745;42.524;12.052;2023-04-16T07:30:04;95520.13;;;14.60;51.88
58367;BME280;57745;42.524;12.052;2023-04-16T07:32:29;95516.06;;;14.70;52.01
58367;BME280;57745;42.524;12.052;2023-04-16T07:34:56;95515.31;;;14.69;52.13
58367;BME280;57745;42.524;12.052;2023-04-16T07:37:21;95518.69;;;14.64;52.30
58367;BME280;57745;42.524;12.052;2023-04-16T07:39:46;95533.75;;;14.60;52.49
58367;BME280;57745;42.524;12.052;2023-04-16T07:42:12;95521.03;;;14.71;51.80
58367;BME280;57745;42.524;12.052;2023-04-16T07:44:38;95525.81;;;14.77;52.12
58367;BME280;57745;42.524;12.052;2023-04-16T07:47:03;95539.03;;;14.63;52.36
58367;BME280;57745;42.524;12.052;2023-04-16T07:49:29;95533.34;;;14.82;51.82
58367;BME280;57745;42.524;12.052;2023-04-16T07:51:54;95530.94;;;14.69;51.97
58367;BME280;57745;42.524;12.052;2023-04-16T07:54:20;95531.88;;;14.66;52.48
58367;BME280;57745;42.524;12.052;2023-04-16T07:56:45;95534.25;;;14.58;52.38
58367;BME280;57745;42.524;12.052;2023-04-16T07:59:11;95534.34;;;14.49;52.35
58367;BME280;57745;42.524;12.052;2023-04-16T08:01:36;95535.56;;;14.48;52.43
58367;BME280;57745;42.524;12.052;2023-04-16T08:04:02;95542.47;;;14.79;51.93
58367;BME280;57745;42.524;12.052;2023-04-16T08:06:27;95552.94;;;14.65;52.54
58367;BME280;57745;42.524;12.052;2023-04-16T08:08:52;95544.28;;;14.67;52.30
58367;BME280;57745;42.524;12.052;2023-04-16T08:11:18;95548.28;;;14.51;52.97
58367;BME280;57745;42.524;12.052;2023-04-16T08:13:43;95544.28;;;14.67;52.56
58367;BME280;57745;42.524;12.052;2023-04-16T08:16:09;95546.00;;;14.64;52.34
58367;BME280;57745;42.524;12.052;2023-04-16T08:18:34;95542.97;;;14.62;52.83
58367;BME280;57745;42.524;12.052;2023-04-16T08:21:00;95534.66;;;14.71;52.64
58367;BME280;57745;42.524;12.052;2023-04-16T08:23:25;95541.16;;;14.74;52.98
58367;BME280;57745;42.524;12.052;2023-04-16T08:25:51;95530.00;;;14.92;52.54
58367;BME280;57745;42.524;12.052;2023-04-16T08:28:16;95531.44;;;14.88;52.66
58367;BME280;57745;42.524;12.052;2023-04-16T08:30:42;95532.53;;;14.96;52.33
58367;BME280;57745;42.524;12.052;2023-04-16T08:33:07;95521.78;;;14.72;52.54
58367;BME280;57745;42.524;12.052;2023-04-16T08:35:33;95537.16;;;14.90;52.20
58367;BME280;57745;42.524;12.052;2023-04-16T08:37:58;95560.50;;;14.91;52.32
58367;BME280;57745;42.524;12.052;2023-04-16T08:40:27;95546.72;;;14.80;52.65
58367;BME280;57745;42.524;12.052;2023-04-16T08:42:55;95551.75;;;14.87;52.73
58367;BME280;57745;42.524;12.052;2023-04-16T08:45:27;95549.16;;;14.78;52.61
58367;BME280;57745;42.524;12.052;2023-04-16T08:47:53;95557.97;;;14.87;52.41
58367;BME280;57745;42.524;12.052;2023-04-16T08:50:22;95564.31;;;14.79;52.35
58367;BME280;57745;42.524;12.052;2023-04-16T08:53:09;95573.88;;;14.89;52.23
58367;BME280;57745;42.524;12.052;2023-04-16T08:58:07;95563.75;;;14.74;52.21
58367;BME280;57745;42.524;12.052;2023-04-16T09:00:34;95565.25;;;14.76;52.03
58367;BME280;57745;42.524;12.052;2023-04-16T09:03:01;95571.81;;;14.84;51.98
58367;BME280;57745;42.524;12.052;2023-04-16T09:05:28;95589.97;;;14.87;52.04
58367;BME280;57745;42.524;12.052;2023-04-16T09:07:53;95583.00;;;14.86;51.67
58367;BME280;57745;42.524;12.052;2023-04-16T09:10:19;95593.78;;;14.74;52.06
58367;BME280;57745;42.524;12.052;2023-04-16T09:12:45;95592.25;;;14.88;51.98
58367;BME280;57745;42.524;12.052;2023-04-16T09:15:11;95600.25;;;14.77;52.49
58367;BME280;57745;42.524;12.052;2023-04-16T09:17:37;95614.66;;;14.78;52.65
58367;BME280;57745;42.524;12.052;2023-04-16T09:20:05;95618.50;;;14.86;52.38
58367;BME280;57745;42.524;12.052;2023-04-16T09:22:33;95604.81;;;15.00;52.14
58367;BME280;57745;42.524;12.052;2023-04-16T09:24:59;95603.91;;;14.89;52.21
58367;BME280;57745;42.524;12.052;2023-04-16T09:27:24;95602.41;;;14.88;51.97
58367;BME280;57745;42.524;12.052;2023-04-16T09:29:50;95607.50;;;14.95;52.42
58367;BME280;57745;42.524;12.052;2023-04-16T09:32:15;95612.25;;;15.00;52.06
58367;BME280;57745;42.524;12.052;2023-04-16T09:35:10;95620.44;;;15.00;52.14
58367;BME280;57745;42.524;12.052;2023-04-16T09:37:35;95622.69;;;15.16;51.19
58367;BME280;57745;42.524;12.052;2023-04-16T09:40:03;95623.97;;;14.86;51.56
58367;BME280;57745;42.524;12.052;2023-04-16T09:42:30;95625.56;;;14.92;51.74
58367;BME280;57745;42.524;12.052;2023-04-16T09:44:57;95631.78;;;14.93;51.30
58367;BME280;57745;42.524;12.052;2023-04-16T09:47:24;95635.31;;;14.99;51.18
58367;BME280;57745;42.524;12.052;2023-04-16T09:49:51;95629.88;;;14.99;50.97
58367;BME280;57745;42.524;12.052;2023-04-16T09:52:21;95643.34;;;14.88;51.47
58367;BME280;57745;42.524;12.052;2023-04-16T09:54:52;95637.44;;;14.89;51.50
58367;BME280;57745;42.524;12.052;2023-04-16T09:57:23;95631.34;;;15.15;50.54
58367;BME280;57745;42.524;12.052;2023-04-16T10:00:00;95628.97;;;15.22;50.82
58367;BME280;57745;42.524;12.052;2023-04-16T10:02:27;95617.59;;;15.09;51.50
58367;BME280;57745;42.524;12.052;2023-04-16T10:04:53;95600.22;;;15.27;51.65
58367;BME280;57745;42.524;12.052;2023-04-16T10:07:19;95600.56;;;15.14;52.06
58367;BME280;57745;42.524;12.052;2023-04-16T10:09:48;95607.66;;;15.06;52.85
58367;BME280;57745;42.524;12.052;2023-04-16T10:12:15;95608.06;;;15.19;52.01
58367;BME280;57745;42.524;12.052;2023-04-16T10:14:41;95609.72;;;15.31;51.92
58367;BME280;57745;42.524;12.052;2023-04-16T10:17:07;95617.16;;;15.31;52.01
58367;BME280;57745;42.524;12.052;2023-04-16T10:19:34;95610.88;;;15.25;52.85
58367;BME280;57745;42.524;12.052;2023-04-16T10:22:00;95616.19;;;15.34;52.55
58367;BME280;57745;42.524;12.052;2023-04-16T10:24:28;95629.50;;;15.61;51.65
58367;BME280;57745;42.524;12.052;2023-04-16T10:26:54;95619.34;;;15.47;52.07
58367;BME280;57745;42.524;12.052;2023-04-16T10:29:20;95625.78;;;15.44;51.98
58367;BME280;57745;42.524;12.052;2023-04-16T10:31:47;95627.41;;;15.36;52.19
58367;BME280;57745;42.524;12.052;2023-04-16T10:34:13;95630.09;;;15.51;51.93
58367;BME280;57745;42.524;12.052;2023-04-16T10:36:40;95632.47;;;15.58;52.06
58367;BME280;57745;42.524;12.052;2023-04-16T10:39:10;95641.19;;;15.62;52.55
58367;BME280;57745;42.524;12.052;2023-04-16T10:41:36;95633.84;;;15.53;52.45
58367;BME280;57745;42.524;12.052;2023-04-16T10:44:07;95638.00;;;15.49;52.56
58367;BME280;57745;42.524;12.052;2023-04-16T10:46:39;95638.44;;;15.62;52.27
58367;BME280;57745;42.524;12.052;2023-04-16T10:49:12;95639.19;;;15.62;52.07
58367;BME280;57745;42.524;12.052;2023-04-16T10:51:38;95626.41;;;15.74;51.91
58367;BME280;57745;42.524;12.052;2023-04-16T10:54:30;95631.09;;;15.68;51.90
58367;BME280;57745;42.524;12.052;2023-04-16T10:56:58;95637.53;;;15.50;51.84
58367;BME280;57745;42.524;12.052;2023-04-16T10:59:24;95654.19;;;15.67;51.30
58367;BME280;57745;42.524;12.052;2023-04-16T11:01:54;95654.97;;;15.73;51.58
58367;BME280;57745;42.524;12.052;2023-04-16T11:10:10;95672.88;;;15.54;50.65
58367;BME280;57745;42.524;12.052;2023-04-16T11:12:38;95677.19;;;15.60;50.81
58367;BME280;57745;42.524;12.052;2023-04-16T11:15:05;95666.47;;;15.57;51.32
58367;BME280;57745;42.524;12.052;2023-04-16T11:17:45;95662.56;;;15.84;50.87
58367;BME280;57745;42.524;12.052;2023-04-16T11:20:16;95659.41;;;15.70;51.41
58367;BME280;57745;42.524;12.052;2023-04-16T11:22:42;95659.38;;;15.65;52.10
58367;BME280;57745;42.524;12.052;2023-04-16T11:25:07;95662.22;;;15.76;51.74
58367;BME280;57745;42.524;12.052;2023-04-16T11:27:34;95680.34;;;15.73;52.20
58367;BME280;57745;42.524;12.052;2023-04-16T11:30:02;95668.13;;;15.69;51.90
58367;BME280;57745;42.524;12.052;2023-04-16T11:32:32;95679.06;;;15.69;51.79
58367;BME280;57745;42.524;12.052;2023-04-16T11:34:58;95687.13;;;15.78;51.09
58367;BME280;57745;42.524;12.052;2023-04-16T11:37:35;95690.88;;;15.80;51.48
58367;BME280;57745;42.524;12.052;2023-04-16T11:40:02;95697.44;;;15.89;51.11
58367;BME280;57745;42.524;12.052;2023-04-16T11:42:33;95694.91;;;15.50;51.95
58367;BME280;57745;42.524;12.052;2023-04-16T11:45:01;95685.66;;;15.62;51.28
58367;BME280;57745;42.524;12.052;2023-04-16T11:47:28;95695.84;;;15.62;51.65
58367;BME280;57745;42.524;12.052;2023-04-16T11:49:54;95692.91;;;15.65;51.46
58367;BME280;57745;42.524;12.052;2023-04-16T11:52:30;95681.38;;;15.76;51.43
58367;BME280;57745;42.524;12.052;2023-04-16T11:54:56;95695.59;;;15.80;51.28
58367;BME280;57745;42.524;12.052;2023-04-16T11:57:27;95691.84;;;15.77;51.12
58367;BME280;57745;42.524;12.052;2023-04-16T11:59:52;95682.03;;;15.71;51.22
58367;BME280;57745;42.524;12.052;2023-04-16T12:02:54;95680.22;;;16.03;50.62
58367;BME280;57745;42.524;12.052;2023-04-16T12:05:32;95694.22;;;15.70;51.59
58367;BME280;57745;42.524;12.052;2023-04-16T12:08:04;95677.69;;;15.79;51.34
58367;BME280;57745;42.524;12.052;2023-04-16T12:10:32;95683.03;;;15.68;51.54
58367;BME280;57745;42.524;12.052;2023-04-16T12:13:15;95664.50;;;15.77;51.13
58367;BME280;57745;42.524;12.052;2023-04-16T12:15:47;95675.91;;;15.56;51.28
58367;BME280;57745;42.524;12.052;2023-04-16T12:18:14;95657.94;;;15.69;50.60
58367;BME280;57745;42.524;12.052;2023-04-16T12:20:43;95666.25;;;16.01;50.74
58367;BME280;57745;42.524;12.052;2023-04-16T12:23:10;95661.63;;;15.66;51.10
58367;BME280;57745;42.524;12.052;2023-04-16T12:25:35;95658.91;;;15.66;51.47
58367;BME280;57745;42.524;12.052;2023-04-16T12:28:01;95669.13;;;15.92;50.72
58367;BME280;57745;42.524;12.052;2023-04-16T12:30:27;95672.28;;;15.64;50.81
58367;BME280;57745;42.524;12.052;2023-04-16T12:33:14;95670.03;;;15.63;51.25
58367;BME280;57745;42.524;12.052;2023-04-16T12:35:41;95678.56;;;15.91;50.79
58367;BME280;57745;42.524;12.052;2023-04-16T12:38:08;95670.16;;;15.74;51.28
58367;BME280;57745;42.524;12.052;2023-04-16T12:40:34;95681.28;;;15.70;51.43
58367;BME280;57745;42.524;12.052;2023-04-16T12:43:00;95673.91;;;15.97;50.49
58367;BME280;57745;42.524;12.052;2023-04-16T12:45:25;95680.75;;;15.87;50.43
58367;BME280;57745;42.524;12.052;2023-04-16T12:47:51;95677.56;;;15.68;50.74
58367;BME280;57745;42.524;12.052;2023-04-16T12:50:16;95677.13;;;15.75;50.49
58367;BME280;57745;42.524;12.052;2023-04-16T12:52:42;95681.22;;;15.85;50.29
58367;BME280;57745;42.524;12.052;2023-04-16T12:55:08;95681.28;;;15.70;50.34